KSGU/SGU METAR and TAF weather

Enter ICAO airport designator
Station Type Date Time Source
KSGU METAR 2019/07/15 19:56 UTC NOAA

KSGU 151956Z AUTO 03007KT 10SM CLR 38/04 A2994 RMK AO2 SLP093 T03830039


Station Type Date Time Source
KSGU Decoded METAR 2019/07/15 19:56 UTC NOAA

St George, St George Municipal Airport, UT, United States (KSGU) 37-05N 113-36W
Jul 15, 2019 - 03:56 PM EDT / 2019.07.15 1956 UTC
Wind: from the NNE (030 degrees) at 8 MPH (7 KT):0
Visibility: 10 mile(s):0
Sky conditions: clear
Temperature: 100.9 F (38.3 C)
Dew Point: 39.0 F (3.9 C)
Relative Humidity: 11%
Pressure (altimeter): 29.94 in. Hg (1013 hPa)
ob: KSGU 151956Z AUTO 03007KT 10SM CLR 38/04 A2994 RMK AO2 SLP093 T03830039
cycle: 20

Station Type Date Time Source
KSGU TAF 2019/07/15 18:22 UTC NOAA

TAF KSGU 151720Z 1518/1618 VRB04KT P6SM SKC
FM152100 26012G20KT P6SM SKC
FM160300 VRB04KT P6SM SKC

Example: see airport list